Weather observations for the past three days for
Currituck, Currituck County Airport
Metric (Imperial)
Date Time (edt) Wind (kph) Vis. (km) Weather Sky Cond. Temperature (ºC) Relative Humidity Wind Chill (°C) Heat Index (°C) Pressure Precipitation (cm)
Air Dwpt 6 hour altimeter (cm) sea level (mb) 1 hr 3 hr 6 hr
Max. Min.
04 09:35 SW 19 16.09 Fair CLR 17.8 10.2 61% 76.33 0.0
04 09:15 SW 17 16.09 Fair CLR 16.7 10.1 65% 76.33 0.0
04 08:55 SW 17 16.09 Fair CLR 15.8 10.2 70% 76.33 0.0
04 08:35 SW 15 16.09 Fair CLR 15.4 10.6 73% 76.35 0.0
04 08:15 SW 13 16.09 Fair CLR 14.1 10.2 78% 76.35 0.0
04 07:55 SW 9 16.09 Fair CLR 12.8 10.2 31.4 -9 84% 76.35 0.0
04 07:35 SW 6 16.09 Fair CLR 11 9.4 90% 76.35 0.0
04 07:15 S 6 16.09 Partly Cloudy SCT120 9.5 8.2 92% 76.38 0.0
04 06:55 Calm 16.09 Fair CLR 8.6 7.5 93% 76.35 0.0
04 06:35 Calm 16.09 Fair CLR 8.3 7.3 94% 76.35 0.0
04 06:15 Calm 16.09 Fair CLR 8.3 7.6 95% 76.35 0.0
04 05:55 Calm 16.09 Fair CLR 8.1 7.4 95% 76.35 0.0
04 05:35 Calm 16.09 Fair CLR 8 7.3 95% 76.35 0.0
04 05:15 Calm 16.09 Partly Cloudy SCT120 7.6 6.9 95% 76.38 0.0
04 04:55 Calm 16.09 Fair CLR 8 7.2 95% 76.38 0.0
04 04:35 Calm 16.09 Fair CLR 8.1 7.3 95% 76.4 0.0
04 04:15 Calm 16.09 Fair CLR 7.9 7.1 95% 76.38 0.0
04 03:55 Calm 16.09 Fair CLR 8.3 7.4 94% 76.38 0.0
04 03:35 Calm 16.09 Fair CLR 8.2 7.2 93% 76.4 0.0
04 03:15 Calm 16.09 Fair CLR 9.1 7.8 92% 76.4 0.0
04 02:55 Calm 16.09 Fair CLR 9.4 8.1 92% 76.4 0.0
04 02:35 Calm 16.09 Fair CLR 8.7 7.4 92% 76.4 0.0
04 02:15 Calm 16.09 Fair CLR 8.6 7.2 91% 76.4 0.0
04 01:55 Calm 16.09 Fair CLR 9.2 7.3 31.4 -9 88% 76.4 0.0
04 01:35 Calm 16.09 Fair CLR 9.2 6.9 86% 76.4 0.0
04 01:15 Calm 16.09 Fair CLR 9.5 7.1 85% 76.4 0.0
04 00:55 S 6 16.09 Fair CLR 9.2 6.5 83% 76.4 0.0
04 00:35 Calm 16.09 Fair CLR 9.7 6.3 80% 76.4 0.0
04 00:15 S 6 16.09 Fair CLR 10 6.1 77% 76.4 0.0
03 23:55 S 7 16.09 Fair CLR 10.2 5.8 74% 76.4 0.0
03 23:35 S 9 16.09 Fair CLR 10.3 5.6 73% 76.4 0.0
03 23:15 S 9 16.09 Fair CLR 10.1 5.4 73% 76.43 0.0
03 22:55 S 7 16.09 Fair CLR 10 5.3 73% 9 76.43 0.0
03 22:35 SE 7 16.09 Fair CLR 10.1 5.2 72% 76.43 0.0
03 22:15 SE 7 16.09 Fair CLR 10.2 5.1 71% 76.43 0.0
03 21:55 SE 9 16.09 Fair CLR 10.2 4.9 70% 76.4 0.0
03 21:35 SE 9 16.09 Fair CLR 10.2 4.7 69% 76.38 0.0
03 21:15 SE 9 16.09 Fair CLR 10.5 4.6 67% 76.35 0.0
03 20:55 SE 9 16.09 Fair CLR 10.6 4.4 66% 76.33 0.0
03 20:35 Calm 16.09 Fair CLR 10.9 4.3 64% 76.3 0.0
03 20:15 SE 6 16.09 Fair CLR 11.5 4.2 61% 76.3 0.0
03 19:55 Calm 16.09 Fair CLR 12.3 4 31.4 -9 57% 76.28 0.0
03 19:35 SE 9 16.09 Fair CLR 12.8 3.9 55% 76.28 0.0
03 19:15 E 9 16.09 Fair CLR 13.4 3.5 51% 76.25 0.0
03 18:55 E 9 16.09 Fair CLR 14 3.7 50% 76.25 0.0
03 18:35 E 6 16.09 Fair CLR 15.3 2.9 44% 76.25 0.0
03 18:15 N 6 16.09 Fair CLR 17.2 0.1 32% 76.23 0.0
03 17:55 SW 11 16.09 Fair CLR 17.4 0 31% 76.23 0.0
03 17:35 NW 6 16.09 Fair CLR 17.5 0.2 31% 76.2 0.0
03 17:15 W 6 16.09 Fair CLR 17.2 0.3 32% 76.2 0.0
03 16:55 W 15 16.09 Fair CLR 17.4 0.7 33% 76.2 0.0
03 16:35 W 13 16.09 Fair CLR 17.2 0.5 33% 76.2 0.0
03 16:15 NW 7 16.09 Fair CLR 17.3 0.8 33% 76.23 0.0
03 15:55 W 17 16.09 Partly Cloudy SCT070 17.2 1.2 34% 76.23 0.0
03 15:35 W 17 G 28 16.09 Partly Cloudy SCT070 17.3 0.9 33% 76.25 0.0
03 15:15 W 20 G 26 16.09 Fair CLR 16.8 0.4 33% 76.25 0.0
03 14:55 W 13 G 26 16.09 Fair CLR 16.6 0.7 34% 76.28 0.0
03 14:35 N 28 G 35 16.09 Fair CLR 16.2 0.4 34% 76.28 0.0
03 14:15 NW 13 16.09 Fair CLR 15.9 0.2 35% 76.3 0.0
03 13:55 NW 13 G 28 16.09 Fair CLR 15.4 -0.1 31.4 -9 35% 76.3 0.0
03 13:15 W 15 G 30 16.09 Fair CLR 15.2 -0.4 35% 76.33 0.0
03 12:55 NW 19 G 37 16.09 Fair CLR 15.1 -0.4 35% 76.33 0.0
03 12:35 NW 20 G 28 16.09 Fair CLR 14.8 -0.2 36% 76.33 0.0
03 12:15 W 9 G 31 16.09 Fair CLR 14.5 -0.1 37% 76.33 0.0
03 11:55 NW 15 16.09 Fair CLR 14.4 -0.3 37% 76.33 0.0
03 11:35 W 22 G 33 16.09 Fair CLR 13.8 0 39% 76.35 0.0
03 11:15 NW 17 16.09 Fair CLR 13.7 0.5 41% 76.35 0.0
03 10:55 N 19 G 33 16.09 Fair CLR 13.5 0 40% 76.35 0.0
03 10:35 NW 19 G 28 16.09 Fair CLR 13.2 0.3 41% 76.33 0.0
03 10:15 NW 19 G 31 16.09 Partly Cloudy SCT070 12.8 0.1 42% 76.33 0.0
03 09:55 NW 20 G 31 16.09 Partly Cloudy SCT070 12.7 0.7 44% 76.33 0.0
03 09:35 NW 15 G 28 16.09 Partly Cloudy SCT070 12.2 1 47% 76.33 0.0
03 09:15 NW 13 16.09 Partly Cloudy SCT070 11.8 1.5 50% 76.33 0.0
03 08:55 NW 13 16.09 Mostly Cloudy SCT070 BKN085 11.1 1.7 53% 76.3 0.0
03 08:35 NW 9 16.09 Overcast SCT070 OVC085 10.7 1.8 54% 76.28 0.0
03 08:15 NW 13 16.09 Overcast OVC070 10.4 3 60% 76.28 0.0
03 07:55 NW 13 16.09 Overcast OVC070 9.6 3.7 31.4 -9 67% 8 76.25 0.0
03 07:35 NW 9 16.09 Overcast OVC070 9.1 5 76% 8 76.23 0.0
03 07:15 NW 7 16.09 Overcast OVC070 8.2 5 80% 7 76.2 0.0
03 06:55 Calm 16.09 Overcast BKN070 OVC085 7.3 4.9 85% 76.17 0.0
03 06:35 Calm 16.09 Overcast OVC085 7 4.7 85% 76.15 0.0
03 06:15 Calm 16.09 Overcast SCT075 OVC085 7.2 4.6 84% 76.1 0.0
03 05:55 Calm 16.09 Mostly Cloudy BKN080 BKN085 7.4 4.5 82% 76.1 0.0
03 05:35 NW 6 16.09 Mostly Cloudy BKN080 7.7 4.5 80% 76.07 0.0
03 05:15 NW 6 16.09 Overcast OVC080 7.5 4.6 82% 76.07 0.0
03 04:55 W 6 16.09 Mostly Cloudy BKN080 7.1 4.5 84% 76.05 0.0
03 04:35 Calm 16.09 Partly Cloudy SCT080 7.4 4.5 82% 76.02 0.0
03 04:15 Calm 16.09 Partly Cloudy SCT080 7.8 4.5 80% 76.02 0.0
03 03:55 Calm 16.09 Fair CLR 8.1 4.8 80% 76 0.0
03 03:35 Calm 16.09 Partly Cloudy SCT075 8.2 5 80% 75.97 0.0
03 03:15 NW 6 16.09 Partly Cloudy SCT075 8.1 5 81% 75.95 0.0
03 02:55 W 7 16.09 Fair CLR 8.4 4.9 79% 8 75.95 0.0
03 02:35 W 7 16.09 Fair CLR 9 5.1 77% 8 75.95 0.0
03 02:15 W 7 16.09 Fair CLR 9.2 5.3 77% 8 75.92 0.0
03 01:55 W 6 16.09 Fair CLR 9.7 5.5 31.4 -9 75% 75.92 0.0
03 01:35 Calm 16.09 Fair CLR 10 5.6 74% 75.92 0.0
03 01:15 Calm 16.09 Fair CLR 10.1 5.9 75% 75.92 0.0
03 00:55 W 6 16.09 Mostly Cloudy BKN100 10.1 6.2 77% 75.95 0.0
03 00:35 Calm 16.09 Mostly Cloudy BKN110 10.2 6.2 76% 75.95 0.0
03 00:15 W 6 16.09 Partly Cloudy SCT110 10.3 6.2 76% 75.95 0.0
02 23:55 Calm 16.09 Partly Cloudy SCT090 SCT120 10.3 6.2 76% 75.95 0.0
02 23:35 W 6 16.09 Mostly Cloudy SCT080 BKN120 10.2 6.4 78% 75.95 0.0
02 23:15 Calm 16.09 Overcast BKN080 OVC120 10.4 6.3 76% 75.92 0.0
02 22:55 NW 6 16.09 Overcast SCT070 BKN090 OVC120 10.5 6.3 75% 75.92 0.0
02 22:35 Calm 16.09 Overcast BKN070 OVC110 10.5 6.6 77% 75.95 0.0
02 22:15 Calm 16.09 Overcast OVC095 10.6 6.5 76% 75.95 0.0
02 21:55 Calm 16.09 Overcast SCT065 OVC095 10.9 5.8 71% 75.92 0.0
02 21:35 NW 6 16.09 Light Drizzle BKN065 BKN075 OVC095 11.1 5.5 69% 75.92 0.0
02 21:15 NW 7 16.09 Overcast BKN080 OVC095 11.3 5.3 67% 75.9 0.0
02 20:55 N 6 16.09 Overcast OVC095 11.3 5.8 69% 75.9 0.0
02 20:35 NW 6 16.09 Overcast OVC095 11.5 5.9 69% 75.9 0.0
02 20:15 N 6 16.09 Overcast OVC095 11.8 5.6 66% 75.87 0.0
02 19:55 N 11 16.09 Overcast OVC095 11.9 5.6 31.4 -9 66% 75.87 0.0
02 19:35 N 13 16.09 Overcast OVC095 12 5.6 65% 75.82 0.0
02 19:15 N 13 16.09 Overcast OVC095 12.1 5.6 65% 75.82 0.0
02 18:55 N 13 16.09 Overcast OVC095 12.5 6.9 69% 75.82 0.0
02 18:35 N 11 16.09 Light Drizzle SCT075 OVC095 12.5 8.5 77% 75.82 0.0
02 18:15 N 9 16.09 Light Drizzle SCT026 SCT041 OVC085 12.6 8.6 77% 75.84 0.0
02 17:55 N 7 16.09 Drizzle SCT026 SCT037 OVC075 12.6 8.5 76% 75.84 0.0
02 17:35 N 6 16.09 Light Drizzle SCT025 BKN075 OVC095 12.7 8.7 77% 75.84 0.0
02 17:15 N 7 16.09 Light Drizzle SCT025 SCT075 OVC085 12.6 8.9 78% 75.82 0.0
02 16:55 N 11 16.09 Light Rain SCT019 BKN075 OVC085 12.5 9.2 80% 75.82 0.0
02 16:35 N 13 16.09 Light Drizzle BKN019 BKN034 OVC085 12.2 8.7 79% 75.82 0.0
02 16:15 N 17 16.09 Light Drizzle SCT034 SCT070 OVC085 12.1 8.3 78% 75.79 0.0
02 15:55 N 15 16.09 Rain OVC085 12.3 8 75% 75.82 0.0
02 15:35 N 11 16.09 Light Drizzle OVC085 12.3 7.8 74% 75.87 0.0
02 15:15 NE 17 16.09 Overcast OVC085 12.1 7.8 75% 75.87 0.0
02 14:55 N 17 16.09 Overcast SCT035 SCT050 OVC085 11.9 7.6 75% 75.87 0.0
02 14:35 N 17 16.09 Light Drizzle SCT060 OVC085 11.6 7.6 77% 75.92 0.0
02 14:15 N 20 16.09 Light Rain SCT060 BKN075 OVC085 11.8 7.7 76% 75.95 0.0
02 13:55 N 22 G 31 16.09 Light Drizzle SCT065 OVC075 12 7.9 31.4 -9 76% 76 0.0
02 13:35 N 22 G 28 16.09 Drizzle OVC075 12.3 7.7 74% 76 0.0
02 13:15 N 19 G 33 16.09 Light Rain SCT033 OVC095 12.5 7.2 70% 75.97 0.0
02 12:55 N 30 G 37 16.09 Overcast SCT019 BKN037 OVC043 12.6 9.1 79% 75.95 0.0
02 12:35 N 26 G 35 16.09 Light Rain SCT015 BKN034 OVC041 12.5 10 85% 75.97 0.0
02 12:15 N 28 G 33 16.09 Light Rain BKN015 OVC022 12.8 10.8 88% 76 0.0
02 11:55 N 19 G 28 16.09 Light Rain BKN015 BKN032 OVC070 13.3 11.2 87% 76.02 0.0
02 11:35 N 26 G 33 16.09 Light Rain BKN015 BKN025 OVC080 13.4 11.3 87% 76 0.0
02 11:15 N 22 16.09 Light Rain BKN015 OVC060 13.4 11.3 87% 76 0.0
02 10:55 NE 20 G 26 16.09 Drizzle BKN013 BKN018 OVC085 13.4 11.6 89% 75.97 0.0
02 10:35 N 19 G 26 16.09 Drizzle SCT015 BKN070 OVC085 13.3 11.3 88% 75.95 0.0
02 10:15 N 19 G 28 16.09 Drizzle SCT013 BKN070 OVC085 13.3 11.4 88% 75.92 0.0
02 09:55 N 15 16.09 Rain SCT013 SCT032 OVC085 13.3 11.7 90% 75.9 0.0
02 09:35 N 11 16.09 Light Rain OVC085 13.2 11.4 89% 75.87 0.0
02 09:15 N 15 16.09 Light Rain OVC085 13.2 11.7 91% 75.9 0.0
02 08:55 N 11 16.09 Rain SCT075 OVC085 13 11.6 91% 75.92 0.0
02 08:35 N 7 16.09 Light Rain SCT075 OVC085 12.6 11.2 91% 75.92 0.0
02 08:15 N 6 16.09 Rain SCT075 OVC085 12.4 10.8 90% 75.92 0.0
02 07:55 N 7 16.09 Light Rain SCT033 SCT049 OVC085 12.3 10.6 31.4 -9 89% 75.95 0.0
02 07:35 N 7 16.09 Drizzle SCT027 BKN033 OVC085 12.2 10.6 90% 75.95 0.0
02 07:15 Calm 11.27 Light Rain SCT027 OVC035 12.2 10.7 91% 75.95 0.0
02 06:55 Calm 16.09 Drizzle OVC033 12.2 10.6 90% 75.95 0.0
02 06:35 Calm 16.09 Overcast BKN033 OVC110 12.1 10.5 90% 75.92 0.0
02 06:15 Calm 16.09 Overcast SCT031 OVC110 12.2 10.3 88% 75.9 0.0
02 05:55 Calm 16.09 Overcast BKN031 OVC110 12.2 10.5 89% 75.9 0.0
02 05:35 NW 6 16.09 Overcast SCT025 SCT033 OVC120 12 10.9 93% 75.9 0.0
02 05:15 Calm 16.09 Overcast BKN016 BKN029 OVC120 12 11 94% 75.87 0.0
02 04:55 Calm 16.09 Mostly Cloudy BKN016 BKN024 11.8 10.8 94% 75.87 0.0
02 04:35 Calm 16.09 Partly Cloudy SCT026 SCT033 11.7 10.6 93% 75.87 0.0
02 04:15 Calm 16.09 Mostly Cloudy SCT017 SCT028 BKN034 11.6 10.5 93% 75.87 0.0
02 03:55 Calm 16.09 Mostly Cloudy SCT017 BKN031 11.7 10.6 93% 75.87 0.0
02 03:35 NW 6 16.09 Partly Cloudy SCT017 SCT027 SCT032 11.7 10.8 94% 75.87 0.0
02 03:15 Calm 16.09 Mostly Cloudy BKN019 BKN026 BKN033 11.7 10.7 94% 75.87 0.0
02 02:55 Calm 16.09 Overcast SCT019 BKN031 OVC095 11.6 10.7 94% 75.87 0.0
02 02:35 Calm 16.09 Mostly Cloudy SCT023 SCT029 BKN095 11.2 10.2 94% 75.87 0.0
02 02:15 Calm 16.09 Mostly Cloudy SCT025 BKN036 BKN050 11.4 10.4 94% 75.92 0.0
02 01:55 Calm 16.09 Mostly Cloudy BKN023 BKN030 BKN050 11.4 10.2 31.4 -9 92% 75.95 0.0
02 01:35 Calm 16.09 Overcast BKN023 OVC030 11.2 10.1 93% 75.95 0.0
02 01:15 Calm 11.27 Light Rain BKN023 OVC031 11.3 10 92% 75.97 0.0
02 00:55 NW 9 16.09 Overcast BKN032 OVC039 11.3 9 86% 75.97 0.0
02 00:35 Calm 16.09 Overcast SCT039 BKN060 OVC075 11.1 9 87% 76 0.0
02 00:15 SE 6 16.09 Light Rain SCT038 BKN070 OVC085 11.3 9.5 89% 76 0.0
01 23:55 Calm 16.09 Light Drizzle SCT027 BKN043 OVC070 11.5 9.7 89% 76.02 0.0
01 23:35 W 9 16.09 Light Rain SCT029 BKN043 OVC048 11.6 9.5 87% 76.07 0.0
01 23:15 Calm 16.09 Mostly Cloudy SCT042 BKN050 BKN055 11.5 8.7 83% 76.05 0.0
01 22:55 Calm 16.09 Mostly Cloudy SCT048 SCT060 BKN075 11.4 8.7 84% 76.07 0.0
01 22:35 Calm 16.09 Overcast BKN046 OVC050 11.3 8.7 84% 76.07 0.0
01 22:15 Calm 16.09 Overcast BKN044 OVC050 11.3 8.8 85% 76.07 0.0
01 21:55 Calm 16.09 Overcast BKN048 OVC065 11.4 8.8 84% 76.07 0.0
01 21:35 Calm 16.09 Overcast BKN050 OVC070 11.6 9 84% 76.1 0.0
01 21:15 S 6 16.09 Rain SCT037 BKN050 OVC080 11.8 9 83% 76.07 0.0
01 20:55 SW 6 16.09 Light Rain SCT047 BKN080 OVC090 12 8.8 81% 76.07 0.0
01 20:35 Calm 16.09 Overcast OVC080 12 8.6 80% 76.02 0.0
01 20:15 E 7 16.09 Drizzle SCT060 OVC080 12.7 7.9 73% 76.02 0.0
01 19:55 SE 7 16.09 Overcast SCT047 SCT060 OVC090 13 7.6 31.4 -9 70% 76.02 0.0
01 19:35 SE 7 16.09 Overcast SCT049 SCT060 OVC090 13 7.5 70% 76.02 0.0
01 19:15 SE 6 16.09 Overcast OVC100 13.2 7 66% 76.02 0.0
01 18:55 Calm 16.09 Overcast BKN100 OVC120 13.6 6.5 62% 76.02 0.0
01 18:35 SE 9 16.09 Overcast OVC110 14.1 6.2 59% 76.05 0.0
01 18:15 SE 7 16.09 Overcast OVC110 14.3 6.4 59% 76.05 0.0
01 17:55 SE 7 16.09 Partly Cloudy SCT110 14.7 6.1 57% 76.07 0.0
01 17:35 SE 11 16.09 Partly Cloudy SCT100 14.8 6.1 56% 76.05 0.0
01 17:15 SE 9 16.09 Partly Cloudy SCT100 15.1 5.4 53% 76.05 0.0
01 16:55 SE 7 16.09 Partly Cloudy SCT120 15.4 5.1 51% 76.07 0.0
01 16:35 E 11 16.09 Partly Cloudy SCT120 15.4 5.7 53% 76.07 0.0
01 16:15 E 11 16.09 Mostly Cloudy BKN110 15.1 5.3 52% 76.07 0.0
01 15:55 SE 11 16.09 Overcast OVC110 14.8 5.7 55% 76.1 0.0
01 15:35 E 13 16.09 Overcast OVC100 14.4 5.8 57% 76.12 0.0
01 15:15 E 13 16.09 Overcast OVC110 13.7 5.5 58% 76.15 0.0
01 14:55 E 11 16.09 Overcast OVC110 13.7 5.3 57% 76.17 0.0
01 14:35 E 7 16.09 Overcast OVC120 14.3 5.6 56% 76.17 0.0
01 14:15 E 9 16.09 Mostly Cloudy BKN120 15 5.9 55% 76.17 0.0
01 13:55 E 13 16.09 Mostly Cloudy BKN120 14.8 5.8 31.4 -9 55% 76.17 0.0
01 13:35 NE 9 16.09 Overcast OVC120 14.9 4.3 49% 76.2 0.0
01 13:15 E 7 16.09 Mostly Cloudy BKN120 15 4.6 50% 76.2 0.0
01 12:55 E 7 16.09 Fair CLR 15.1 4.7 50% 76.2 0.0
01 12:35 E 9 16.09 Fair CLR 15.3 4.8 50% 76.2 0.0
01 12:15 NE 11 16.09 Fair CLR 15.4 5.3 51% 76.2 0.0
01 11:55 E 17 16.09 Fair CLR 15.5 5.5 52% 76.23 0.0
01 11:35 NE 19 16.09 Fair CLR 15.4 5.6 52% 76.23 0.0
01 11:15 E 15 16.09 Fair CLR 15.2 5.5 53% 76.23 0.0
01 10:55 NE 15 G 26 16.09 Fair CLR 15.5 5.8 53% 76.25 0.0
01 10:35 N 20 G 26 16.09 Fair CLR 15.1 5.4 53% 76.2 0.0
01 10:15 NE 13 16.09 Fair CLR 15.2 5.8 54% 76.2 0.0
01 09:55 NE 17 G 26 16.09 Fair CLR 15.1 5.3 52% 76.2 0.0
Date Time (edt) Wind (kph) Vis. (km) Weather Sky Cond. Air Dwpt Max. Min. Relative Humidity Wind Chill (°C) Heat Index (°C) altimeter (cm) sea level (mb) 1 hr 3 hr 6 hr
6 hour
Temperature (ºC) Pressure Precipitation (cm)